Time;durP1;ratioP1;P1;durP2;ratioP2;P2;SDS_P1;SDS_P2;PMS_P1;PMS_P2;Temp;Humidity;BMP_temperature;BMP_pressure;BME280_temperature;BME280_humidity;BME280_pressure;Samples;Min_cycle;Max_cycle;Signal;HPM_P1;HPM_P2
2020/12/16 00:02:19;;;;;;;28.43;25.80;;;2.40;99.90;;;;;;5120698;27;20464;-75
2020/12/16 00:04:45;;;;;;;27.97;25.60;;;2.40;99.90;;;;;;5111511;27;20464;-77
2020/12/16 00:07:12;;;;;;;29.80;26.87;;;2.40;99.90;;;;;;5117853;27;20450;-74
2020/12/16 00:09:38;;;;;;;29.57;26.80;;;2.40;99.90;;;;;;5113864;27;20519;-74
2020/12/16 00:12:05;;;;;;;29.60;26.80;;;2.40;99.90;;;;;;5112579;27;20469;-75
2020/12/16 00:14:33;;;;;;;29.80;27.20;;;2.40;99.90;;;;;;5121967;27;20976;-74
2020/12/16 00:16:59;;;;;;;30.50;27.27;;;2.50;99.90;;;;;;5117657;27;20520;-75
2020/12/16 00:19:26;;;;;;;31.13;28.50;;;2.60;99.90;;;;;;5113752;27;20462;-75
2020/12/16 00:21:52;;;;;;;30.87;27.87;;;2.80;99.90;;;;;;5115901;27;21091;-74
2020/12/16 00:24:18;;;;;;;29.67;27.07;;;3.00;99.90;;;;;;5118168;27;20460;-74
2020/12/16 00:26:46;;;;;;;30.50;27.37;;;3.00;99.90;;;;;;5117658;27;20488;-74
2020/12/16 00:29:13;;;;;;;30.47;27.57;;;3.00;99.90;;;;;;5112776;27;20460;-74
2020/12/16 00:31:40;;;;;;;28.87;26.47;;;3.00;99.90;;;;;;5118430;27;20478;-75
2020/12/16 00:34:07;;;;;;;30.20;27.40;;;3.00;99.90;;;;;;5114336;27;20475;-74
2020/12/16 00:36:37;;;;;;;30.57;27.53;;;3.00;99.90;;;;;;5114895;27;20490;-74
2020/12/16 00:39:05;;;;;;;29.57;27.20;;;3.00;99.90;;;;;;5120075;27;20467;-75
2020/12/16 00:41:33;;;;;;;31.03;28.17;;;2.90;99.90;;;;;;5111847;27;20464;-75
2020/12/16 00:43:59;;;;;;;31.17;28.37;;;2.90;99.90;;;;;;5118872;27;20468;-74
2020/12/16 00:46:27;;;;;;;30.53;27.63;;;2.70;99.90;;;;;;5121179;27;20954;-74
2020/12/16 00:48:53;;;;;;;31.20;28.07;;;2.60;99.90;;;;;;5113504;27;21257;-74
2020/12/16 00:51:20;;;;;;;31.43;28.63;;;2.50;99.90;;;;;;5111069;27;20563;-75
2020/12/16 00:53:46;;;;;;;29.63;27.07;;;2.50;99.90;;;;;;5116086;27;20764;-75
2020/12/16 00:56:13;;;;;;;30.67;28.00;;;2.40;99.90;;;;;;5111223;27;20471;-74
2020/12/16 00:58:40;;;;;;;30.73;27.60;;;2.40;99.90;;;;;;5109708;27;20495;-74
2020/12/16 01:01:06;;;;;;;30.13;27.33;;;2.40;99.90;;;;;;5119908;27;20466;-74
2020/12/16 01:03:33;;;;;;;30.70;27.90;;;2.40;99.90;;;;;;5115378;27;20815;-75
2020/12/16 01:06:00;;;;;;;31.57;27.97;;;2.50;99.90;;;;;;5113672;27;20552;-74
2020/12/16 01:08:27;;;;;;;29.70;27.00;;;2.60;99.90;;;;;;5115699;27;21032;-75
2020/12/16 01:10:53;;;;;;;32.10;29.10;;;2.60;99.90;;;;;;5115684;27;20820;-75
2020/12/16 01:13:19;;;;;;;41.37;28.87;;;2.70;99.90;;;;;;5111988;27;20500;-75
2020/12/16 01:15:46;;;;;;;30.77;27.87;;;2.80;99.90;;;;;;5112283;27;20447;-74
2020/12/16 01:18:13;;;;;;;31.83;28.43;;;2.80;99.90;;;;;;5115110;27;20492;-74
2020/12/16 01:20:40;;;;;;;30.97;27.90;;;2.80;99.90;;;;;;5111292;28;21020;-74
2020/12/16 01:23:07;;;;;;;29.73;27.03;;;2.80;99.90;;;;;;5115476;28;20472;-74
2020/12/16 01:25:33;;;;;;;29.77;27.13;;;2.80;99.90;;;;;;5115205;28;20465;-74
2020/12/16 01:28:00;;;;;;;28.93;26.20;;;2.80;99.90;;;;;;5108725;28;20542;-74
2020/12/16 01:30:27;;;;;;;28.63;26.10;;;2.80;99.90;;;;;;5113290;28;20977;-74
2020/12/16 01:32:55;;;;;;;30.30;27.30;;;2.70;99.90;;;;;;5116160;28;20468;-74
2020/12/16 01:35:23;;;;;;;30.73;27.50;;;2.60;99.90;;;;;;5110637;28;20534;-75
2020/12/16 01:37:51;;;;;;;30.50;27.73;;;2.70;99.90;;;;;;5114389;28;20780;-74
2020/12/16 01:40:18;;;;;;;32.23;28.93;;;2.80;99.90;;;;;;5113919;28;20464;-74
2020/12/16 01:42:44;;;;;;;32.70;29.30;;;2.90;99.90;;;;;;5116039;28;20466;-74
2020/12/16 01:45:14;;;;;;;31.60;28.77;;;3.10;99.90;;;;;;5108906;28;20457;-74
2020/12/16 01:47:42;;;;;;;33.37;29.87;;;3.30;99.90;;;;;;5112917;28;20495;-74
2020/12/16 01:50:10;;;;;;;33.43;29.70;;;3.40;99.90;;;;;;5107888;28;20511;-75
2020/12/16 01:52:37;;;;;;;35.73;30.07;;;3.50;99.90;;;;;;5115916;28;20861;-74
2020/12/16 01:55:07;;;;;;;34.03;28.60;;;3.70;99.90;;;;;;5116007;28;20857;-74
2020/12/16 01:57:36;;;;;;;31.83;28.70;;;3.70;99.90;;;;;;5112150;28;20484;-74
2020/12/16 02:00:06;;;;;;;33.90;29.67;;;3.70;99.90;;;;;;5113931;28;20491;-74
2020/12/16 02:02:36;;;;;;;32.23;28.20;;;3.80;99.90;;;;;;5108250;28;20487;-74
2020/12/16 02:05:04;;;;;;;32.00;28.90;;;3.80;99.90;;;;;;5111252;28;20452;-75
2020/12/16 02:07:32;;;;;;;32.80;29.70;;;3.80;99.90;;;;;;5119848;28;20486;-75
2020/12/16 02:09:58;;;;;;;33.57;30.20;;;3.90;99.90;;;;;;5109382;28;20799;-75
2020/12/16 02:12:33;;;;;;;34.80;30.97;;;3.90;99.90;;;;;;5110222;28;20453;-74
2020/12/16 02:15:00;;;;;;;34.07;30.67;;;3.90;99.90;;;;;;5114749;28;20535;-74
2020/12/16 02:17:26;;;;;;;33.07;29.93;;;4.00;99.90;;;;;;5110600;28;20744;-74
2020/12/16 02:19:56;;;;;;;33.67;30.13;;;4.00;99.90;;;;;;5108132;27;20488;-74
2020/12/16 02:22:23;;;;;;;33.27;29.77;;;4.00;99.90;;;;;;5119154;27;20460;-74
2020/12/16 02:24:57;;;;;;;31.63;28.53;;;3.80;99.90;;;;;;5116069;27;20460;-74
2020/12/16 02:27:24;;;;;;;33.30;30.10;;;3.70;99.90;;;;;;5118544;27;20471;-74
2020/12/16 02:29:50;;;;;;;31.93;29.03;;;3.60;99.90;;;;;;5117577;27;20498;-74
2020/12/16 02:32:18;;;;;;;32.57;29.20;;;3.60;99.90;;;;;;5123706;27;20668;-74
2020/12/16 02:34:44;;;;;;;34.50;30.77;;;3.50;99.90;;;;;;5114579;27;20990;-75
2020/12/16 02:37:11;;;;;;;33.40;30.00;;;3.60;99.90;;;;;;5119914;27;20482;-74
2020/12/16 02:39:37;;;;;;;34.10;31.00;;;3.60;99.90;;;;;;5121778;27;20456;-74
2020/12/16 02:42:06;;;;;;;33.10;29.60;;;3.80;99.90;;;;;;5113855;27;20480;-75
2020/12/16 02:44:32;;;;;;;36.03;30.43;;;3.90;99.90;;;;;;5116096;27;20471;-74
2020/12/16 02:47:00;;;;;;;34.03;30.40;;;4.00;99.90;;;;;;5120445;27;20464;-75
2020/12/16 02:49:27;;;;;;;34.47;30.83;;;4.10;99.90;;;;;;5112390;27;20860;-74
2020/12/16 02:51:54;;;;;;;34.63;31.10;;;4.10;99.90;;;;;;5117052;27;20706;-74
2020/12/16 02:54:21;;;;;;;34.67;31.00;;;4.20;99.90;;;;;;5115584;27;21054;-74
2020/12/16 02:56:48;;;;;;;37.70;33.67;;;4.20;99.90;;;;;;5113596;27;20473;-75
2020/12/16 02:59:15;;;;;;;33.87;30.57;;;4.20;99.90;;;;;;5117408;27;20951;-75
2020/12/16 03:01:42;;;;;;;35.07;31.17;;;4.20;99.90;;;;;;5122389;27;20994;-75
2020/12/16 03:04:08;;;;;;;35.33;31.00;;;4.30;99.90;;;;;;5111837;27;20469;-75
2020/12/16 03:06:34;;;;;;;34.63;30.97;;;4.30;99.90;;;;;;5117110;27;20478;-75
2020/12/16 03:09:01;;;;;;;39.30;30.53;;;4.20;99.90;;;;;;5115923;27;20917;-75
2020/12/16 03:11:27;;;;;;;40.30;32.30;;;4.10;99.90;;;;;;5115400;27;20459;-75
2020/12/16 03:13:54;;;;;;;37.47;31.40;;;4.20;99.90;;;;;;5110012;27;20483;-74
2020/12/16 03:16:21;;;;;;;40.97;30.97;;;4.10;99.90;;;;;;5119146;27;20512;-74
2020/12/16 03:18:47;;;;;;;39.00;33.17;;;4.20;99.90;;;;;;5113840;27;20851;-75
2020/12/16 03:21:21;;;;;;;35.03;31.63;;;4.20;99.90;;;;;;5116472;27;21180;-75
2020/12/16 03:23:48;;;;;;;37.20;33.00;;;4.20;99.90;;;;;;5117509;27;20455;-73
2020/12/16 03:26:14;;;;;;;41.50;33.20;;;4.20;99.90;;;;;;5120316;27;20463;-74
2020/12/16 03:28:42;;;;;;;39.97;32.70;;;4.20;99.90;;;;;;5112241;27;20457;-74
2020/12/16 03:31:08;;;;;;;38.27;32.93;;;4.10;99.90;;;;;;5116038;27;20526;-74
2020/12/16 03:33:35;;;;;;;36.77;32.67;;;4.10;99.90;;;;;;5120310;27;20460;-73
2020/12/16 03:36:02;;;;;;;38.00;33.60;;;4.00;99.90;;;;;;5111584;27;20469;-74
2020/12/16 03:38:29;;;;;;;39.30;33.33;;;4.00;99.90;;;;;;5113803;27;20529;-74
2020/12/16 03:40:57;;;;;;;38.20;34.00;;;4.00;99.90;;;;;;5115359;27;20467;-74
2020/12/16 03:43:23;;;;;;;36.40;32.37;;;4.00;99.90;;;;;;5115685;27;20468;-74
2020/12/16 03:45:50;;;;;;;37.33;33.40;;;3.90;99.90;;;;;;5114589;27;20494;-74
2020/12/16 03:48:17;;;;;;;36.90;33.20;;;3.90;99.90;;;;;;5115140;27;20457;-74
2020/12/16 03:50:44;;;;;;;38.80;31.57;;;3.90;99.90;;;;;;5115885;27;20460;-74
2020/12/16 03:53:10;;;;;;;35.10;31.37;;;3.80;99.90;;;;;;5117112;27;20531;-74
2020/12/16 03:55:37;;;;;;;34.57;31.20;;;3.80;99.90;;;;;;5117910;27;20849;-72
2020/12/16 03:58:03;;;;;;;33.97;30.47;;;3.70;99.90;;;;;;5111515;27;20484;-72
2020/12/16 04:00:30;;;;;;;33.20;29.90;;;3.70;99.90;;;;;;5116177;27;20456;-73
2020/12/16 04:02:57;;;;;;;37.00;32.60;;;3.70;99.90;;;;;;5117174;27;20457;-73
2020/12/16 04:05:23;;;;;;;35.40;31.80;;;3.70;99.90;;;;;;5114249;27;20471;-73
2020/12/16 04:07:50;;;;;;;34.33;30.93;;;3.60;99.90;;;;;;5117458;27;20465;-73
2020/12/16 04:10:16;;;;;;;36.17;32.57;;;3.70;99.90;;;;;;5115044;27;20464;-73
2020/12/16 04:12:43;;;;;;;34.10;30.90;;;3.70;99.90;;;;;;5120434;27;20459;-73
2020/12/16 04:15:09;;;;;;;35.83;31.83;;;3.70;99.90;;;;;;5112303;27;20465;-72
2020/12/16 04:17:36;;;;;;;38.33;32.97;;;3.80;99.90;;;;;;5118579;27;20480;-73
2020/12/16 04:20:05;;;;;;;36.03;32.33;;;3.90;99.90;;;;;;5117844;27;20473;-73
2020/12/16 04:22:31;;;;;;;36.40;32.50;;;3.80;99.90;;;;;;5111145;27;20466;-73
2020/12/16 04:24:59;;;;;;;36.93;33.27;;;3.90;99.90;;;;;;5113870;27;20833;-72
2020/12/16 04:27:25;;;;;;;35.23;31.43;;;3.90;99.90;;;;;;5113966;27;20912;-73
2020/12/16 04:29:51;;;;;;;38.27;33.17;;;3.80;99.90;;;;;;5111183;27;20476;-72
2020/12/16 04:32:17;;;;;;;36.20;32.43;;;3.90;99.90;;;;;;5113077;27;20469;-73
2020/12/16 04:34:44;;;;;;;36.80;33.03;;;3.80;99.90;;;;;;5117874;27;20468;-73
2020/12/16 04:37:10;;;;;;;36.97;32.97;;;3.70;99.90;;;;;;5113470;27;20831;-72
2020/12/16 04:39:37;;;;;;;47.67;33.20;;;3.70;99.90;;;;;;5113133;27;20529;-74
2020/12/16 04:42:04;;;;;;;37.90;33.80;;;3.70;99.90;;;;;;5117700;27;20569;-72
2020/12/16 04:44:30;;;;;;;38.57;33.43;;;3.60;99.90;;;;;;5110094;27;20468;-72
2020/12/16 04:46:57;;;;;;;35.07;31.63;;;3.70;99.90;;;;;;5121951;27;20866;-72
2020/12/16 04:49:24;;;;;;;47.90;31.70;;;3.70;99.90;;;;;;5115453;27;20457;-73
2020/12/16 04:51:51;;;;;;;35.07;31.60;;;3.60;99.90;;;;;;5115761;27;20461;-74
2020/12/16 04:54:18;;;;;;;34.43;31.03;;;3.50;99.90;;;;;;5119309;27;20456;-73
2020/12/16 04:56:45;;;;;;;33.07;30.10;;;3.50;99.90;;;;;;5117263;27;20458;-73
2020/12/16 04:59:12;;;;;;;33.20;29.70;;;3.50;99.90;;;;;;5116194;27;20491;-72
2020/12/16 05:01:41;;;;;;;35.50;31.70;;;3.40;99.90;;;;;;5120076;27;20810;-73
2020/12/16 05:04:08;;;;;;;35.20;31.50;;;3.30;99.90;;;;;;5115237;27;21022;-73
2020/12/16 05:06:36;;;;;;;34.10;30.80;;;3.20;99.90;;;;;;5123539;27;20459;-73
2020/12/16 05:09:09;;;;;;;33.43;30.20;;;3.20;99.90;;;;;;5122157;27;20459;-73
2020/12/16 05:11:38;;;;;;;34.47;31.40;;;3.10;99.90;;;;;;5114121;27;20464;-72
2020/12/16 05:14:09;;;;;;;67.43;31.80;;;3.10;99.90;;;;;;5122998;27;20459;-73
2020/12/16 05:16:59;;;;;;;249.97;37.43;;;3.00;99.90;;;;;;5122562;28;20512;-75
2020/12/16 05:19:34;;;;;;;213.93;33.63;;;2.80;99.90;;;;;;5118449;28;20467;-74
2020/12/16 05:22:19;;;;;;;147.47;31.30;;;2.70;99.90;;;;;;5115954;28;20541;-73
2020/12/16 05:24:48;;;;;;;31.03;28.47;;;2.60;99.90;;;;;;5117992;28;20459;-73
2020/12/16 05:27:22;;;;;;;31.83;28.70;;;2.50;99.90;;;;;;5122098;28;20475;-73
2020/12/16 05:29:53;;;;;;;28.80;26.30;;;2.40;99.90;;;;;;5111991;28;20496;-73
2020/12/16 05:32:23;;;;;;;31.17;28.37;;;2.40;99.90;;;;;;5116830;28;20551;-74
2020/12/16 05:34:50;;;;;;;32.80;29.83;;;2.40;99.90;;;;;;5123740;28;20460;-73
2020/12/16 05:37:32;;;;;;;30.57;28.07;;;2.40;99.90;;;;;;5123620;28;20475;-73
2020/12/16 05:40:01;;;;;;;30.93;28.27;;;2.50;99.90;;;;;;5119139;28;20454;-72
2020/12/16 05:42:28;;;;;;;31.23;28.03;;;2.40;99.90;;;;;;5113823;28;20464;-72
2020/12/16 05:44:57;;;;;;;31.93;28.73;;;2.40;99.90;;;;;;5118571;28;20552;-73
2020/12/16 05:47:25;;;;;;;32.57;29.33;;;2.40;99.90;;;;;;5115100;28;20995;-72
2020/12/16 05:49:51;;;;;;;31.10;27.90;;;2.40;99.90;;;;;;5114297;28;20459;-73
2020/12/16 05:52:18;;;;;;;32.20;29.10;;;2.50;99.90;;;;;;5120033;28;20494;-73
2020/12/16 05:54:50;;;;;;;30.70;27.93;;;2.50;99.90;;;;;;5121861;27;20503;-73
2020/12/16 05:57:19;;;;;;;32.30;29.40;;;2.40;99.90;;;;;;5122157;27;20490;-73
2020/12/16 06:00:08;;;;;;;33.30;29.80;;;2.40;99.90;;;;;;5121408;27;20915;-73
2020/12/16 06:02:37;;;;;;;33.50;30.07;;;2.50;99.90;;;;;;5111096;27;20942;-73
2020/12/16 06:05:06;;;;;;;31.57;28.67;;;2.80;99.90;;;;;;5122173;27;20457;-73
2020/12/16 06:07:33;;;;;;;31.73;28.60;;;3.00;99.90;;;;;;5119973;27;20871;-73
2020/12/16 06:10:00;;;;;;;32.87;29.83;;;3.00;99.90;;;;;;5118811;27;20451;-73
2020/12/16 06:12:31;;;;;;;33.10;29.10;;;2.90;99.90;;;;;;5117102;27;20468;-73
2020/12/16 06:15:06;;;;;;;31.87;28.90;;;2.90;99.90;;;;;;5121291;27;20509;-73
2020/12/16 06:17:37;;;;;;;32.43;29.23;;;3.00;99.90;;;;;;5118101;27;20490;-73
2020/12/16 06:20:05;;;;;;;33.57;30.37;;;3.10;99.90;;;;;;5112321;27;20483;-73
2020/12/16 06:22:33;;;;;;;33.90;30.23;;;3.20;99.90;;;;;;5124256;27;20463;-72
2020/12/16 06:25:07;;;;;;;36.27;30.20;;;3.30;99.90;;;;;;5118816;27;20769;-73
2020/12/16 06:27:42;;;;;;;32.87;29.47;;;3.30;99.90;;;;;;5116608;27;20475;-72
2020/12/16 06:30:13;;;;;;;32.07;29.00;;;3.40;99.90;;;;;;5113932;27;20464;-73
2020/12/16 06:32:44;;;;;;;31.33;28.20;;;3.50;99.90;;;;;;5117804;27;20472;-73
2020/12/16 06:35:17;;;;;;;35.90;29.77;;;3.50;99.90;;;;;;5112931;27;20457;-73
2020/12/16 06:37:46;;;;;;;32.60;29.10;;;3.60;99.90;;;;;;5121572;27;21072;-73
2020/12/16 06:40:12;;;;;;;36.53;30.27;;;3.50;99.90;;;;;;5117223;27;20544;-73
2020/12/16 06:42:39;;;;;;;34.87;31.37;;;3.50;99.90;;;;;;5118049;27;20467;-72
2020/12/16 06:45:10;;;;;;;35.90;32.33;;;3.50;99.90;;;;;;5114205;27;20505;-73
2020/12/16 06:47:36;;;;;;;35.53;31.60;;;3.50;99.90;;;;;;5121127;27;20464;-73
2020/12/16 06:50:16;;;;;;;32.77;29.23;;;3.50;99.90;;;;;;5117985;27;21017;-73
2020/12/16 06:52:42;;;;;;;34.50;31.00;;;3.40;99.90;;;;;;5113778;27;20460;-74
2020/12/16 06:55:09;;;;;;;34.43;29.40;;;3.50;99.90;;;;;;5118687;27;20467;-73
2020/12/16 06:57:46;;;;;;;33.53;30.00;;;3.40;99.90;;;;;;5117139;27;20520;-72
2020/12/16 07:00:18;;;;;;;33.23;29.90;;;3.50;99.90;;;;;;5120566;27;20494;-73
2020/12/16 07:02:44;;;;;;;33.83;30.63;;;3.60;99.90;;;;;;5120783;27;20478;-73
2020/12/16 07:05:37;;;;;;;33.10;29.70;;;3.50;99.90;;;;;;5120495;27;20865;-72
2020/12/16 07:08:04;;;;;;;31.40;28.20;;;3.50;99.90;;;;;;5121508;27;21036;-73
2020/12/16 07:10:50;;;;;;;33.80;30.30;;;3.60;99.90;;;;;;5115966;27;20506;-73
2020/12/16 07:13:27;;;;;;;34.30;30.77;;;3.80;99.90;;;;;;5117695;27;20523;-73
2020/12/16 07:15:57;;;;;;;32.13;29.10;;;3.80;99.90;;;;;;5117481;27;20469;-73
2020/12/16 07:18:29;;;;;;;31.90;28.90;;;3.70;99.90;;;;;;5121052;27;20484;-72
2020/12/16 07:21:05;;;;;;;33.17;29.93;;;3.80;99.90;;;;;;5119665;27;20460;-72
2020/12/16 07:23:38;;;;;;;35.23;29.80;;;3.80;99.90;;;;;;5114353;27;20459;-72
2020/12/16 07:26:05;;;;;;;34.20;29.37;;;3.70;99.90;;;;;;5112940;27;20500;-73
2020/12/16 07:28:36;;;;;;;34.10;30.80;;;3.70;99.90;;;;;;5117407;27;20847;-72
2020/12/16 07:31:05;;;;;;;34.40;30.90;;;3.60;99.90;;;;;;5113858;27;20479;-72
2020/12/16 07:33:32;;;;;;;34.13;30.43;;;3.60;99.90;;;;;;5116065;27;20460;-72
2020/12/16 07:36:01;;;;;;;35.80;30.87;;;3.60;99.90;;;;;;5117429;27;20461;-72
2020/12/16 07:38:27;;;;;;;36.33;30.30;;;3.70;99.90;;;;;;5109103;27;20591;-72
2020/12/16 07:40:54;;;;;;;31.10;28.30;;;3.70;99.90;;;;;;5121497;27;20467;-72
2020/12/16 07:43:22;;;;;;;33.43;29.83;;;3.80;99.90;;;;;;5115976;27;20469;-72
2020/12/16 07:46:05;;;;;;;31.70;28.60;;;3.70;99.90;;;;;;5116388;27;20460;-72
2020/12/16 07:48:31;;;;;;;36.93;33.13;;;3.80;99.90;;;;;;5114993;27;20433;-72
2020/12/16 07:51:00;;;;;;;33.97;30.30;;;3.80;99.90;;;;;;5111634;27;20902;-73
2020/12/16 07:53:27;;;;;;;33.67;30.40;;;3.80;99.90;;;;;;5114840;27;20461;-73
2020/12/16 07:55:57;;;;;;;33.00;29.57;;;3.90;99.90;;;;;;5118167;27;20980;-72
2020/12/16 07:58:24;;;;;;;33.27;29.97;;;3.90;99.90;;;;;;5113966;27;20503;-72
2020/12/16 08:00:50;;;;;;;29.57;26.77;;;3.90;99.90;;;;;;5112644;27;20472;-73
2020/12/16 08:03:17;;;;;;;36.23;29.83;;;3.90;99.90;;;;;;5118486;27;20536;-72
2020/12/16 08:05:43;;;;;;;31.33;27.90;;;4.00;99.90;;;;;;5114481;27;21278;-72
2020/12/16 08:08:10;;;;;;;35.27;31.53;;;4.00;99.90;;;;;;5118006;27;20566;-73
2020/12/16 08:10:37;;;;;;;34.63;30.53;;;3.90;99.90;;;;;;5116945;27;20469;-72
2020/12/16 08:13:03;;;;;;;34.73;30.90;;;4.00;99.90;;;;;;5109891;27;20469;-74
2020/12/16 08:15:30;;;;;;;33.40;30.03;;;4.00;99.90;;;;;;5120300;27;20460;-75
2020/12/16 08:17:56;;;;;;;34.13;30.70;;;4.00;99.90;;;;;;5118823;27;20491;-75
2020/12/16 08:20:25;;;;;;;32.77;29.30;;;4.10;99.90;;;;;;5113720;27;20471;-73
2020/12/16 08:22:55;;;;;;;34.60;30.90;;;4.10;99.90;;;;;;5118437;27;20457;-74
2020/12/16 08:25:23;;;;;;;36.07;31.17;;;4.10;99.90;;;;;;5118516;27;20470;-75
2020/12/16 08:27:51;;;;;;;34.27;30.93;;;4.20;99.90;;;;;;5118407;27;20464;-73
2020/12/16 08:30:19;;;;;;;33.27;30.07;;;4.20;99.90;;;;;;5117380;27;20885;-75
2020/12/16 08:32:55;;;;;;;34.43;30.80;;;4.30;99.90;;;;;;5116603;27;20481;-73
2020/12/16 08:35:27;;;;;;;36.13;32.20;;;4.30;99.90;;;;;;5114561;27;20491;-75
2020/12/16 08:37:56;;;;;;;34.90;31.30;;;4.30;99.90;;;;;;5115999;27;20878;-75
2020/12/16 08:40:24;;;;;;;38.73;31.80;;;4.40;99.90;;;;;;5119675;27;20472;-75
2020/12/16 08:42:50;;;;;;;32.90;29.60;;;4.40;99.90;;;;;;5110803;27;20512;-74
2020/12/16 08:45:18;;;;;;;38.77;32.40;;;4.50;99.90;;;;;;5115521;27;20508;-75
2020/12/16 08:47:45;;;;;;;36.23;31.47;;;4.50;99.90;;;;;;5115329;27;20507;-74
2020/12/16 08:50:14;;;;;;;35.53;31.73;;;4.60;99.90;;;;;;5111020;27;20464;-74
2020/12/16 08:52:46;;;;;;;35.50;31.23;;;4.70;99.90;;;;;;5115972;27;20460;-74
2020/12/16 08:55:33;;;;;;;39.40;32.80;;;4.70;99.90;;;;;;5116113;27;20487;-73
2020/12/16 08:58:01;;;;;;;40.80;32.00;;;4.80;99.90;;;;;;5114447;27;20490;-74
2020/12/16 09:00:28;;;;;;;34.47;30.97;;;4.90;99.90;;;;;;5095830;28;20845;-73
2020/12/16 09:03:03;;;;;;;36.10;32.30;;;5.00;99.90;;;;;;5096382;28;20495;-76
2020/12/16 09:05:29;;;;;;;35.80;32.10;;;5.00;99.90;;;;;;5097195;28;20464;-72
2020/12/16 09:08:06;;;;;;;43.03;35.13;;;5.10;99.90;;;;;;5094614;28;20469;-74
2020/12/16 09:10:35;;;;;;;38.43;33.77;;;5.20;99.90;;;;;;5096894;28;20460;-75
2020/12/16 09:13:18;;;;;;;36.43;32.83;;;5.30;99.90;;;;;;5103548;28;20488;-75
2020/12/16 09:15:49;;;;;;;42.20;32.73;;;5.40;99.90;;;;;;5101216;28;20457;-75
2020/12/16 09:18:16;;;;;;;37.10;33.50;;;5.40;99.90;;;;;;5098065;28;20505;-76
2020/12/16 09:20:47;;;;;;;37.77;33.90;;;5.40;99.90;;;;;;5100080;28;20465;-75
2020/12/16 09:23:14;;;;;;;38.07;34.27;;;5.50;99.90;;;;;;5097841;28;20465;-75
2020/12/16 09:25:51;;;;;;;38.27;34.43;;;5.50;99.90;;;;;;5099669;28;20457;-75
2020/12/16 09:28:24;;;;;;;41.17;36.93;;;5.60;99.90;;;;;;5095865;28;20504;-76
2020/12/16 09:30:50;;;;;;;37.70;33.73;;;5.60;99.90;;;;;;5101714;28;20840;-76
2020/12/16 09:33:17;;;;;;;43.77;34.43;;;5.70;99.90;;;;;;5103587;28;20995;-76
2020/12/16 09:35:44;;;;;;;41.63;34.20;;;5.70;99.90;;;;;;5102314;28;20473;-75
2020/12/16 09:38:17;;;;;;;39.33;34.20;;;5.80;99.90;;;;;;5097481;28;20489;-75
2020/12/16 09:40:44;;;;;;;38.67;34.67;;;5.80;99.90;;;;;;5098890;28;20457;-75
2020/12/16 09:43:14;;;;;;;44.83;35.80;;;5.90;99.90;;;;;;5104905;28;20468;-76
2020/12/16 09:45:42;;;;;;;39.47;35.17;;;5.90;99.90;;;;;;5100382;28;20491;-75
2020/12/16 09:48:08;;;;;;;38.87;34.90;;;6.10;99.90;;;;;;5101822;28;20461;-74
2020/12/16 09:50:36;;;;;;;51.40;34.10;;;6.20;99.90;;;;;;5102687;28;20469;-77
2020/12/16 09:53:04;;;;;;;37.00;33.00;;;6.40;99.90;;;;;;5100542;28;20470;-75
2020/12/16 09:55:36;;;;;;;41.67;33.30;;;6.60;99.90;;;;;;5101118;28;20461;-76
2020/12/16 09:58:04;;;;;;;43.07;32.50;;;6.70;99.90;;;;;;5099159;28;20518;-74
2020/12/16 10:00:32;;;;;;;40.07;31.97;;;6.90;99.90;;;;;;5114583;27;20461;-75
2020/12/16 10:03:00;;;;;;;40.53;34.77;;;7.00;99.90;;;;;;5117953;27;20460;-76
2020/12/16 10:05:27;;;;;;;42.27;32.57;;;7.10;99.90;;;;;;5115823;27;20477;-75
2020/12/16 10:07:53;;;;;;;40.80;33.87;;;7.30;99.90;;;;;;5119669;27;20546;-76
2020/12/16 10:10:21;;;;;;;41.40;34.23;;;7.40;99.90;;;;;;5117857;27;20569;-75
2020/12/16 10:12:48;;;;;;;45.73;34.40;;;7.50;99.90;;;;;;5118064;27;20452;-75
2020/12/16 10:15:15;;;;;;;41.17;33.37;;;7.40;99.90;;;;;;5122081;27;20556;-76
2020/12/16 10:17:41;;;;;;;43.53;34.00;;;7.50;99.90;;;;;;5118087;27;20513;-76
2020/12/16 10:20:10;;;;;;;46.40;34.80;;;7.60;99.90;;;;;;5113053;27;20462;-75
2020/12/16 10:22:44;;;;;;;43.83;35.67;;;7.60;99.90;;;;;;5117857;27;20466;-78
2020/12/16 10:25:12;;;;;;;43.63;33.73;;;7.60;99.90;;;;;;5117616;27;20447;-75
2020/12/16 10:27:38;;;;;;;53.57;35.77;;;7.50;99.90;;;;;;5116740;27;20465;-73
2020/12/16 10:30:24;;;;;;;48.07;35.73;;;7.50;99.90;;;;;;5114686;27;20465;-74
2020/12/16 10:32:50;;;;;;;59.17;37.33;;;7.40;99.90;;;;;;5114714;27;20456;-75
2020/12/16 10:35:18;;;;;;;51.43;38.30;;;7.40;99.90;;;;;;5117478;27;20479;-74
2020/12/16 10:37:45;;;;;;;74.40;40.20;;;7.40;99.90;;;;;;5117748;27;20483;-76
2020/12/16 10:40:12;;;;;;;59.53;38.23;;;7.30;99.90;;;;;;5120991;27;20839;-74
2020/12/16 10:42:39;;;;;;;58.27;39.60;;;7.40;99.90;;;;;;5115942;27;20458;-76
2020/12/16 10:45:06;;;;;;;67.47;40.93;;;7.40;99.90;;;;;;5118963;27;20501;-74
2020/12/16 10:49:58;;;;;;;69.50;42.27;;;7.50;99.90;;;;;;5112688;27;20950;-76
2020/12/16 10:52:25;;;;;;;59.93;38.50;;;7.70;99.90;;;;;;5112636;27;20206;-74
2020/12/16 10:54:52;;;;;;;51.70;38.03;;;7.90;99.90;;;;;;5122334;27;20548;-75
2020/12/16 10:57:34;;;;;;;51.97;39.40;;;8.10;99.90;;;;;;5119212;27;20494;-76
2020/12/16 11:00:01;;;;;;;43.30;36.13;;;8.30;99.90;;;;;;5113573;27;20479;-75
2020/12/16 11:02:27;;;;;;;52.83;39.90;;;8.70;99.90;;;;;;5114957;27;20558;-73
2020/12/16 11:04:53;;;;;;;61.33;37.33;;;8.60;99.90;;;;;;5117803;27;20472;-76
2020/12/16 11:07:19;;;;;;;49.07;36.80;;;8.70;99.90;;;;;;5118954;27;20463;-74
2020/12/16 11:09:47;;;;;;;53.20;39.20;;;8.80;99.90;;;;;;5114407;27;20464;-76
2020/12/16 11:12:14;;;;;;;57.77;36.73;;;8.90;99.90;;;;;;5114214;27;20503;-77
2020/12/16 11:14:40;;;;;;;51.43;36.77;;;9.00;99.90;;;;;;5117076;27;20464;-74
2020/12/16 11:17:10;;;;;;;51.70;37.23;;;9.10;99.90;;;;;;5123200;27;20539;-74
2020/12/16 11:19:36;;;;;;;52.17;37.83;;;9.20;99.90;;;;;;5119894;27;20602;-74
2020/12/16 11:22:03;;;;;;;47.13;35.70;;;9.40;99.90;;;;;;5120077;27;21000;-75
2020/12/16 11:24:35;;;;;;;51.87;34.73;;;9.60;99.90;;;;;;5117104;27;20469;-78
2020/12/16 11:27:06;;;;;;;49.13;34.87;;;9.90;99.90;;;;;;5113833;27;20513;-77
2020/12/16 11:29:39;;;;;;;44.47;35.37;;;10.10;99.90;;;;;;5117138;27;20464;-74
2020/12/16 11:32:05;;;;;;;47.23;36.40;;;10.20;99.90;;;;;;5116216;27;20472;-74
2020/12/16 11:34:33;;;;;;;57.47;37.30;;;10.20;99.90;;;;;;5117917;27;21222;-76
2020/12/16 11:37:01;;;;;;;43.60;34.37;;;10.60;99.90;;;;;;5111109;27;20463;-76
2020/12/16 11:39:28;;;;;;;47.93;35.73;;;11.10;99.90;;;;;;5117534;27;20978;-75
2020/12/16 11:41:56;;;;;;;34.70;30.90;;;11.60;99.90;;;;;;5120097;27;20459;-75
2020/12/16 11:44:25;;;;;;;38.53;31.03;;;12.30;99.90;;;;;;5111800;27;20780;-75
2020/12/16 11:46:52;;;;;;;33.47;29.60;;;13.00;99.90;;;;;;5120617;27;20471;-75
2020/12/16 11:49:20;;;;;;;32.07;28.27;;;13.20;99.90;;;;;;5119445;27;20483;-77
2020/12/16 11:51:46;;;;;;;34.53;28.63;;;13.50;99.90;;;;;;5114834;27;20485;-77
2020/12/16 11:54:13;;;;;;;33.77;30.17;;;13.40;99.90;;;;;;5114825;27;20457;-75
2020/12/16 11:56:40;;;;;;;32.50;29.27;;;13.50;99.90;;;;;;5115347;27;20459;-74
2020/12/16 11:59:06;;;;;;;32.67;28.97;;;13.60;99.90;;;;;;5111765;27;20491;-74
2020/12/16 12:01:33;;;;;;;31.40;28.13;;;13.80;99.90;;;;;;5116751;27;20964;-75
2020/12/16 12:04:00;;;;;;;31.63;28.33;;;14.00;99.90;;;;;;5123328;27;20452;-73
2020/12/16 12:06:27;;;;;;;27.97;25.30;;;14.30;99.90;;;;;;5117452;27;20696;-73
2020/12/16 12:08:54;;;;;;;28.80;26.03;;;14.40;99.90;;;;;;5117310;27;20817;-73
2020/12/16 12:11:21;;;;;;;27.70;25.20;;;14.50;99.90;;;;;;5114099;27;20461;-73
2020/12/16 12:13:48;;;;;;;29.10;26.43;;;14.40;99.90;;;;;;5114994;27;20507;-72
2020/12/16 12:16:15;;;;;;;28.30;25.67;;;14.30;99.90;;;;;;5113010;27;20467;-74
2020/12/16 12:18:44;;;;;;;31.47;28.00;;;14.30;99.90;;;;;;5111778;27;20494;-75
2020/12/16 12:21:11;;;;;;;26.90;24.30;;;14.30;99.90;;;;;;5115655;27;21012;-74
2020/12/16 12:23:38;;;;;;;26.07;23.77;;;14.30;99.90;;;;;;5113850;27;20487;-73
2020/12/16 12:26:05;;;;;;;24.97;22.97;;;14.20;99.90;;;;;;5113054;27;20881;-73
2020/12/16 12:28:32;;;;;;;23.97;22.07;;;14.00;99.90;;;;;;5117729;27;20460;-75
2020/12/16 12:30:59;;;;;;;25.00;22.70;;;13.90;99.90;;;;;;5113853;27;20488;-73
2020/12/16 12:33:26;;;;;;;23.53;21.60;;;14.00;99.90;;;;;;5115893;27;20462;-74
2020/12/16 12:35:54;;;;;;;24.77;22.53;;;14.00;99.90;;;;;;5112038;27;20457;-75
2020/12/16 12:38:20;;;;;;;23.60;21.73;;;14.30;99.90;;;;;;5112051;27;20593;-72
2020/12/16 12:40:48;;;;;;;24.53;21.23;;;14.50;99.90;;;;;;5116334;27;21022;-77
2020/12/16 12:43:29;;;;;;;22.27;20.27;;;14.70;99.90;;;;;;5070734;27;20882;-74
2020/12/16 12:45:56;;;;;;;24.00;21.87;;;14.50;99.90;;;;;;5117980;27;20962;-73